FIN98L EKCH-EFHK
Flight info
| Callsign | FIN98L |
|---|---|
| Flight time | 1h 16m |
| Altitude | 37000 |
| Route | KEMAX Q44 IDPAL DCT MOVIS DCT ALAMI DCT OKEVU DCT EVADI Y370 DIVAM |
| Aircraft | A320/M-SDE3FGHIRWY/LB1 |
Departure
| Time | 2026-05-07 17:23 |
|---|---|
| Airport | Copenhagen Kastrup Airport (EKCH) |
Arrival
| Time | 2026-05-07 18:40 |
|---|---|
| Airport | Helsinki Vantaa Airport (EFHK) |
| Time | Latitude | Longitude | Altitude | Speed | Heading |
|---|---|---|---|---|---|
| 2026-05-07 16:48 | 55.62729 | 12.64278 | 18 ft | 0 kts | 303° |
| 2026-05-07 17:10 | 55.62728 | 12.64281 | 17 ft | 2 kts | 303° |
| 2026-05-07 17:10 | 55.62717 | 12.64312 | 17 ft | 4 kts | 310° |
| 2026-05-07 17:10 | 55.62697 | 12.64333 | 21 ft | 4 kts | 5° |
| 2026-05-07 17:10 | 55.62674 | 12.64322 | 19 ft | 4 kts | 21° |
| 2026-05-07 17:11 | 55.62654 | 12.64307 | 17 ft | 2 kts | 21° |
| 2026-05-07 17:11 | 55.62630 | 12.64289 | 18 ft | 4 kts | 31° |
| 2026-05-07 17:11 | 55.62612 | 12.64269 | 18 ft | 4 kts | 33° |
| 2026-05-07 17:11 | 55.62589 | 12.64243 | 20 ft | 4 kts | 33° |
| 2026-05-07 17:12 | 55.62568 | 12.64218 | 19 ft | 4 kts | 34° |
| 2026-05-07 17:12 | 55.62549 | 12.64188 | 20 ft | 4 kts | 64° |
| 2026-05-07 17:12 | 55.62545 | 12.64145 | 17 ft | 4 kts | 109° |
| 2026-05-07 17:12 | 55.62557 | 12.64106 | 19 ft | 4 kts | 123° |
| 2026-05-07 17:13 | 55.62571 | 12.64068 | 20 ft | 2 kts | 123° |
| 2026-05-07 17:13 | 55.62573 | 12.64064 | 19 ft | 0 kts | 123° |
| 2026-05-07 17:15 | 55.62572 | 12.64066 | 20 ft | 1 kts | 123° |
| 2026-05-07 17:16 | 55.62559 | 12.64100 | 19 ft | 6 kts | 124° |
| 2026-05-07 17:16 | 55.62530 | 12.64179 | 20 ft | 9 kts | 123° |
| 2026-05-07 17:16 | 55.62490 | 12.64289 | 17 ft | 12 kts | 124° |
| 2026-05-07 17:16 | 55.62432 | 12.64420 | 17 ft | 15 kts | 129° |
| 2026-05-07 17:17 | 55.62370 | 12.64577 | 17 ft | 16 kts | 123° |
| 2026-05-07 17:17 | 55.62307 | 12.64748 | 19 ft | 16 kts | 123° |
| 2026-05-07 17:17 | 55.62248 | 12.64908 | 17 ft | 15 kts | 123° |
| 2026-05-07 17:17 | 55.62195 | 12.65050 | 17 ft | 13 kts | 122° |
| 2026-05-07 17:18 | 55.62135 | 12.65095 | 17 ft | 9 kts | 207° |
| 2026-05-07 17:18 | 55.62084 | 12.65038 | 18 ft | 8 kts | 213° |
| 2026-05-07 17:18 | 55.62035 | 12.64981 | 19 ft | 8 kts | 213° |
| 2026-05-07 17:18 | 55.61983 | 12.64923 | 17 ft | 9 kts | 212° |
| 2026-05-07 17:19 | 55.61926 | 12.64858 | 17 ft | 11 kts | 213° |
| 2026-05-07 17:19 | 55.61852 | 12.64771 | 19 ft | 15 kts | 213° |
| 2026-05-07 17:19 | 55.61786 | 12.64694 | 17 ft | 19 kts | 213° |
| 2026-05-07 17:19 | 55.61665 | 12.64557 | 19 ft | 21 kts | 212° |
| 2026-05-07 17:20 | 55.61550 | 12.64424 | 17 ft | 19 kts | 213° |
| 2026-05-07 17:20 | 55.61447 | 12.64305 | 19 ft | 17 kts | 213° |
| 2026-05-07 17:20 | 55.61352 | 12.64197 | 18 ft | 16 kts | 212° |
| 2026-05-07 17:20 | 55.61265 | 12.64098 | 17 ft | 14 kts | 212° |
| 2026-05-07 17:21 | 55.61177 | 12.63995 | 19 ft | 17 kts | 213° |
| 2026-05-07 17:21 | 55.61063 | 12.63864 | 17 ft | 22 kts | 213° |
| 2026-05-07 17:21 | 55.60924 | 12.63704 | 17 ft | 25 kts | 213° |
| 2026-05-07 17:21 | 55.60818 | 12.63589 | 17 ft | 13 kts | 195° |
| 2026-05-07 17:22 | 55.60751 | 12.63660 | 17 ft | 11 kts | 133° |
| 2026-05-07 17:22 | 55.60697 | 12.63773 | 18 ft | 16 kts | 123° |
| 2026-05-07 17:22 | 55.60731 | 12.63952 | 19 ft | 19 kts | 40° |
| 2026-05-07 17:22 | 55.60909 | 12.64230 | 18 ft | 65 kts | 41° |
| 2026-05-07 17:23 | 55.61419 | 12.65019 | 18 ft | 129 kts | 41° |
| 2026-05-07 17:23 | 55.62198 | 12.66227 | 244 ft | 155 kts | 39° |
| 2026-05-07 17:23 | 55.63006 | 12.67456 | 921 ft | 154 kts | 39° |
| 2026-05-07 17:23 | 55.63829 | 12.68721 | 1485 ft | 162 kts | 40° |
| 2026-05-07 17:24 | 55.64726 | 12.70123 | 1840 ft | 181 kts | 39° |
| 2026-05-07 17:24 | 55.65726 | 12.71623 | 2236 ft | 196 kts | 38° |
| 2026-05-07 17:24 | 55.66838 | 12.73294 | 2538 ft | 222 kts | 39° |
| 2026-05-07 17:24 | 55.68066 | 12.75188 | 2934 ft | 245 kts | 39° |
| 2026-05-07 17:25 | 55.69380 | 12.77233 | 3662 ft | 254 kts | 39° |
| 2026-05-07 17:25 | 55.70716 | 12.79317 | 4541 ft | 258 kts | 40° |
| 2026-05-07 17:25 | 55.72067 | 12.81434 | 5424 ft | 261 kts | 40° |
| 2026-05-07 17:25 | 55.73435 | 12.83577 | 6307 ft | 263 kts | 40° |
| 2026-05-07 17:26 | 55.74799 | 12.85713 | 7131 ft | 266 kts | 40° |
| 2026-05-07 17:26 | 55.76202 | 12.87903 | 7944 ft | 269 kts | 40° |
| 2026-05-07 17:26 | 55.77618 | 12.90108 | 8796 ft | 271 kts | 41° |
| 2026-05-07 17:26 | 55.79052 | 12.92339 | 9598 ft | 276 kts | 41° |
| 2026-05-07 17:27 | 55.80509 | 12.94607 | 10345 ft | 280 kts | 41° |
| 2026-05-07 17:27 | 55.82026 | 12.96972 | 10661 ft | 301 kts | 41° |
| 2026-05-07 17:27 | 55.83661 | 12.99528 | 10961 ft | 320 kts | 41° |
| 2026-05-07 17:27 | 55.85353 | 13.02181 | 11565 ft | 327 kts | 41° |
| 2026-05-07 17:28 | 55.87048 | 13.04844 | 12257 ft | 331 kts | 41° |
| 2026-05-07 17:28 | 55.88789 | 13.07581 | 12900 ft | 337 kts | 41° |
| 2026-05-07 17:28 | 55.90571 | 13.10379 | 13543 ft | 343 kts | 40° |
| 2026-05-07 17:28 | 55.92371 | 13.13208 | 14153 ft | 348 kts | 41° |
| 2026-05-07 17:29 | 55.94204 | 13.16092 | 14742 ft | 352 kts | 41° |
| 2026-05-07 17:29 | 55.96048 | 13.19002 | 15319 ft | 357 kts | 40° |
| 2026-05-07 17:29 | 55.97913 | 13.21952 | 15911 ft | 360 kts | 40° |
| 2026-05-07 17:29 | 55.99801 | 13.24939 | 16487 ft | 364 kts | 40° |
| 2026-05-07 17:30 | 56.01708 | 13.27960 | 17054 ft | 368 kts | 40° |
| 2026-05-07 17:30 | 56.03630 | 13.31012 | 17651 ft | 372 kts | 40° |
| 2026-05-07 17:30 | 56.05577 | 13.34107 | 18220 ft | 376 kts | 39° |
| 2026-05-07 17:30 | 56.07537 | 13.37228 | 18750 ft | 379 kts | 40° |
| 2026-05-07 17:31 | 56.09512 | 13.40377 | 19263 ft | 382 kts | 40° |
| 2026-05-07 17:31 | 56.11504 | 13.43564 | 19796 ft | 385 kts | 41° |
| 2026-05-07 17:31 | 56.13305 | 13.47062 | 20306 ft | 390 kts | 51° |
| 2026-05-07 17:31 | 56.14888 | 13.51035 | 20827 ft | 393 kts | 53° |
| 2026-05-07 17:32 | 56.16472 | 13.55055 | 21352 ft | 396 kts | 53° |
| 2026-05-07 17:32 | 56.18068 | 13.59106 | 21863 ft | 399 kts | 53° |
| 2026-05-07 17:32 | 56.19677 | 13.63188 | 22381 ft | 402 kts | 53° |
| 2026-05-07 17:32 | 56.21294 | 13.67291 | 22884 ft | 405 kts | 53° |
| 2026-05-07 17:33 | 56.22928 | 13.71445 | 23386 ft | 408 kts | 53° |
| 2026-05-07 17:33 | 56.24568 | 13.75622 | 23837 ft | 410 kts | 53° |
| 2026-05-07 17:33 | 56.26217 | 13.79829 | 24239 ft | 413 kts | 53° |
| 2026-05-07 17:33 | 56.27870 | 13.84062 | 24652 ft | 415 kts | 53° |
| 2026-05-07 17:34 | 56.29529 | 13.88324 | 25038 ft | 417 kts | 54° |
| 2026-05-07 17:34 | 56.31191 | 13.92605 | 25446 ft | 418 kts | 54° |
| 2026-05-07 17:34 | 56.32863 | 13.96911 | 25844 ft | 420 kts | 53° |
| 2026-05-07 17:34 | 56.34538 | 14.01224 | 26190 ft | 422 kts | 53° |
| 2026-05-07 17:35 | 56.36228 | 14.05579 | 26547 ft | 424 kts | 54° |
| 2026-05-07 17:35 | 56.37922 | 14.09955 | 26908 ft | 426 kts | 53° |
| 2026-05-07 17:35 | 56.39619 | 14.14355 | 27261 ft | 428 kts | 54° |
| 2026-05-07 17:35 | 56.41323 | 14.18782 | 27616 ft | 430 kts | 54° |
| 2026-05-07 17:36 | 56.43029 | 14.23230 | 27967 ft | 432 kts | 54° |
| 2026-05-07 17:36 | 56.44741 | 14.27708 | 28319 ft | 433 kts | 54° |
| 2026-05-07 17:36 | 56.46459 | 14.32195 | 28649 ft | 435 kts | 54° |
| 2026-05-07 17:36 | 56.48192 | 14.36688 | 28975 ft | 437 kts | 53° |
| 2026-05-07 17:37 | 56.49939 | 14.41191 | 29287 ft | 438 kts | 53° |
| 2026-05-07 17:37 | 56.51697 | 14.45717 | 29596 ft | 440 kts | 53° |
| 2026-05-07 17:37 | 56.53458 | 14.50256 | 29908 ft | 441 kts | 53° |
| 2026-05-07 17:37 | 56.55224 | 14.54822 | 30178 ft | 444 kts | 53° |
| 2026-05-07 17:38 | 56.57000 | 14.59427 | 30424 ft | 445 kts | 53° |
| 2026-05-07 17:38 | 56.58773 | 14.64041 | 30648 ft | 447 kts | 53° |
| 2026-05-07 17:38 | 56.60551 | 14.68683 | 30846 ft | 449 kts | 53° |
| 2026-05-07 17:38 | 56.62335 | 14.73351 | 31051 ft | 451 kts | 54° |
| 2026-05-07 17:39 | 56.64096 | 14.77974 | 31334 ft | 450 kts | 53° |
| 2026-05-07 17:39 | 56.65869 | 14.82639 | 31660 ft | 449 kts | 53° |
| 2026-05-07 17:39 | 56.67644 | 14.87312 | 32001 ft | 447 kts | 53° |
| 2026-05-07 17:39 | 56.69411 | 14.91963 | 32308 ft | 446 kts | 53° |
| 2026-05-07 17:40 | 56.71168 | 14.96599 | 32624 ft | 445 kts | 54° |
| 2026-05-07 17:40 | 56.72922 | 15.01245 | 32950 ft | 444 kts | 53° |
| 2026-05-07 17:40 | 56.74667 | 15.05877 | 33267 ft | 443 kts | 53° |
| 2026-05-07 17:40 | 56.76411 | 15.10515 | 33538 ft | 443 kts | 53° |
| 2026-05-07 17:41 | 56.78153 | 15.15152 | 33827 ft | 443 kts | 53° |
| 2026-05-07 17:41 | 56.79891 | 15.19782 | 34125 ft | 442 kts | 53° |
| 2026-05-07 17:41 | 56.81626 | 15.24415 | 34370 ft | 442 kts | 53° |
| 2026-05-07 17:41 | 56.83362 | 15.29054 | 34571 ft | 443 kts | 54° |
| 2026-05-07 17:42 | 56.85102 | 15.33715 | 34762 ft | 444 kts | 54° |
| 2026-05-07 17:42 | 56.86839 | 15.38381 | 34937 ft | 444 kts | 54° |
| 2026-05-07 17:42 | 56.88555 | 15.42998 | 35077 ft | 446 kts | 54° |
| 2026-05-07 17:42 | 56.90289 | 15.47672 | 35117 ft | 443 kts | 54° |
| 2026-05-07 17:43 | 56.93726 | 15.56982 | 35117 ft | 441 kts | 54° |
| 2026-05-07 17:43 | 56.97156 | 15.66301 | 35119 ft | 442 kts | 54° |
| 2026-05-07 17:44 | 57.00595 | 15.75649 | 35117 ft | 442 kts | 54° |
| 2026-05-07 17:44 | 57.04022 | 15.85040 | 35122 ft | 442 kts | 54° |
| 2026-05-07 17:45 | 57.07435 | 15.94441 | 35108 ft | 442 kts | 54° |
| 2026-05-07 17:45 | 57.10851 | 16.03852 | 35111 ft | 442 kts | 54° |
| 2026-05-07 17:46 | 57.14260 | 16.13271 | 35121 ft | 442 kts | 54° |
| 2026-05-07 17:46 | 57.17631 | 16.22636 | 35115 ft | 442 kts | 54° |
| 2026-05-07 17:47 | 57.21019 | 16.32115 | 35110 ft | 443 kts | 54° |
| 2026-05-07 17:47 | 57.24756 | 16.41117 | 35110 ft | 442 kts | 49° |
| 2026-05-07 17:48 | 57.28627 | 16.49945 | 35116 ft | 442 kts | 49° |
| 2026-05-07 17:48 | 57.32497 | 16.58809 | 35116 ft | 443 kts | 49° |
| 2026-05-07 17:49 | 57.36365 | 16.67706 | 35112 ft | 443 kts | 49° |
| 2026-05-07 17:49 | 57.40225 | 16.76624 | 35126 ft | 444 kts | 49° |
| 2026-05-07 17:50 | 57.44086 | 16.85578 | 35119 ft | 444 kts | 49° |
| 2026-05-07 17:50 | 57.47885 | 16.94421 | 35118 ft | 445 kts | 49° |
| 2026-05-07 17:51 | 57.51727 | 17.03396 | 35121 ft | 445 kts | 49° |
| 2026-05-07 17:51 | 57.55579 | 17.12430 | 35115 ft | 445 kts | 49° |
| 2026-05-07 17:52 | 57.59435 | 17.21488 | 35117 ft | 446 kts | 49° |
| 2026-05-07 17:52 | 57.63264 | 17.30527 | 35117 ft | 447 kts | 49° |
| 2026-05-07 17:53 | 57.67103 | 17.39665 | 35121 ft | 447 kts | 50° |
| 2026-05-07 17:53 | 57.70935 | 17.48812 | 35119 ft | 447 kts | 50° |
| 2026-05-07 17:54 | 57.74777 | 17.57978 | 35103 ft | 449 kts | 49° |
| 2026-05-07 17:54 | 57.78639 | 17.67217 | 35102 ft | 452 kts | 50° |
| 2026-05-07 17:55 | 57.82523 | 17.76565 | 35113 ft | 455 kts | 49° |
| 2026-05-07 17:55 | 57.86414 | 17.85974 | 35109 ft | 457 kts | 49° |
| 2026-05-07 17:56 | 57.90313 | 17.95450 | 35110 ft | 460 kts | 50° |
| 2026-05-07 17:56 | 57.94205 | 18.04929 | 35113 ft | 461 kts | 50° |
| 2026-05-07 17:57 | 57.97491 | 18.12956 | 35118 ft | 462 kts | 50° |
| 2026-05-07 17:57 | 58.02049 | 18.24142 | 35133 ft | 463 kts | 49° |
| 2026-05-07 17:58 | 58.05971 | 18.33812 | 35131 ft | 465 kts | 49° |
| 2026-05-07 17:58 | 58.09891 | 18.43540 | 35127 ft | 466 kts | 50° |
| 2026-05-07 17:59 | 58.13815 | 18.53295 | 35131 ft | 466 kts | 50° |
| 2026-05-07 17:59 | 58.17738 | 18.63081 | 35133 ft | 466 kts | 50° |
| 2026-05-07 18:00 | 58.21658 | 18.72908 | 35135 ft | 467 kts | 50° |
| 2026-05-07 18:00 | 58.25541 | 18.82699 | 35145 ft | 468 kts | 49° |
| 2026-05-07 18:01 | 58.29451 | 18.92595 | 35132 ft | 469 kts | 50° |
| 2026-05-07 18:01 | 58.33359 | 19.02527 | 35123 ft | 470 kts | 50° |
| 2026-05-07 18:02 | 58.39243 | 19.17508 | 35131 ft | 471 kts | 50° |
| 2026-05-07 18:03 | 58.43148 | 19.27535 | 35142 ft | 471 kts | 50° |
| 2026-05-07 18:03 | 58.47053 | 19.37604 | 35135 ft | 472 kts | 50° |
| 2026-05-07 18:04 | 58.50952 | 19.47730 | 35132 ft | 473 kts | 51° |
| 2026-05-07 18:04 | 58.54710 | 19.58106 | 35133 ft | 475 kts | 53° |
| 2026-05-07 18:05 | 58.58359 | 19.68666 | 35135 ft | 476 kts | 53° |
| 2026-05-07 18:05 | 58.61987 | 19.79196 | 35138 ft | 476 kts | 53° |
| 2026-05-07 18:06 | 58.65673 | 19.89758 | 35146 ft | 477 kts | 53° |
| 2026-05-07 18:06 | 58.69390 | 20.00411 | 35294 ft | 482 kts | 53° |
| 2026-05-07 18:07 | 58.72493 | 20.09369 | 35545 ft | 484 kts | 53° |
| 2026-05-07 18:07 | 58.74377 | 20.14832 | 35734 ft | 484 kts | 53° |
| 2026-05-07 18:07 | 58.76218 | 20.20188 | 35907 ft | 484 kts | 54° |
| 2026-05-07 18:07 | 58.78073 | 20.25606 | 36074 ft | 485 kts | 54° |
| 2026-05-07 18:08 | 58.79932 | 20.31044 | 36242 ft | 485 kts | 54° |
| 2026-05-07 18:08 | 58.81791 | 20.36484 | 36399 ft | 486 kts | 54° |
| 2026-05-07 18:08 | 58.83654 | 20.41942 | 36557 ft | 486 kts | 54° |
| 2026-05-07 18:08 | 58.85512 | 20.47394 | 36723 ft | 487 kts | 54° |
| 2026-05-07 18:09 | 58.87372 | 20.52871 | 36856 ft | 488 kts | 54° |
| 2026-05-07 18:09 | 58.89229 | 20.58353 | 36992 ft | 488 kts | 54° |
| 2026-05-07 18:09 | 58.91087 | 20.63854 | 37139 ft | 489 kts | 54° |
| 2026-05-07 18:10 | 58.94804 | 20.74903 | 37143 ft | 490 kts | 54° |
| 2026-05-07 18:10 | 58.98522 | 20.85999 | 37157 ft | 491 kts | 55° |
| 2026-05-07 18:11 | 59.02224 | 20.97112 | 37155 ft | 490 kts | 55° |
| 2026-05-07 18:11 | 59.05918 | 21.08249 | 37142 ft | 490 kts | 55° |
| 2026-05-07 18:12 | 59.09612 | 21.19410 | 37147 ft | 491 kts | 55° |
| 2026-05-07 18:12 | 59.13275 | 21.30530 | 37154 ft | 491 kts | 55° |
| 2026-05-07 18:13 | 59.16960 | 21.41757 | 37153 ft | 491 kts | 55° |
| 2026-05-07 18:13 | 59.20628 | 21.53024 | 37154 ft | 492 kts | 55° |
| 2026-05-07 18:14 | 59.24282 | 21.64309 | 37188 ft | 492 kts | 55° |
| 2026-05-07 18:14 | 59.27937 | 21.75631 | 37147 ft | 492 kts | 56° |
| 2026-05-07 18:15 | 59.31587 | 21.86979 | 37145 ft | 493 kts | 56° |
| 2026-05-07 18:15 | 59.35225 | 21.98345 | 37164 ft | 491 kts | 56° |
| 2026-05-07 18:16 | 59.38828 | 22.09689 | 36932 ft | 488 kts | 56° |
| 2026-05-07 18:16 | 59.40622 | 22.15356 | 36144 ft | 491 kts | 56° |
| 2026-05-07 18:16 | 59.42429 | 22.21062 | 35508 ft | 490 kts | 55° |
| 2026-05-07 18:16 | 59.44223 | 22.26735 | 34965 ft | 488 kts | 55° |
| 2026-05-07 18:17 | 59.45985 | 22.32320 | 34346 ft | 487 kts | 55° |
| 2026-05-07 18:17 | 59.47765 | 22.37988 | 33707 ft | 485 kts | 55° |
| 2026-05-07 18:17 | 59.49521 | 22.43612 | 33226 ft | 479 kts | 55° |
| 2026-05-07 18:17 | 59.51251 | 22.49179 | 32719 ft | 474 kts | 55° |
| 2026-05-07 18:18 | 59.52964 | 22.54685 | 32212 ft | 469 kts | 55° |
| 2026-05-07 18:18 | 59.54665 | 22.60154 | 31718 ft | 465 kts | 55° |
| 2026-05-07 18:18 | 59.56351 | 22.65572 | 31230 ft | 462 kts | 54° |
| 2026-05-07 18:18 | 59.58026 | 22.70956 | 30710 ft | 459 kts | 55° |
| 2026-05-07 18:19 | 59.59687 | 22.76315 | 30266 ft | 455 kts | 55° |
| 2026-05-07 18:19 | 59.61328 | 22.81633 | 29747 ft | 451 kts | 56° |
| 2026-05-07 18:19 | 59.62944 | 22.86902 | 29312 ft | 446 kts | 56° |
| 2026-05-07 18:19 | 59.64520 | 22.92068 | 28861 ft | 442 kts | 56° |
| 2026-05-07 18:20 | 59.66097 | 22.97248 | 28431 ft | 437 kts | 56° |
| 2026-05-07 18:20 | 59.67660 | 23.02377 | 27998 ft | 433 kts | 55° |
| 2026-05-07 18:20 | 59.69214 | 23.07466 | 27573 ft | 430 kts | 55° |
| 2026-05-07 18:20 | 59.70753 | 23.12515 | 27142 ft | 426 kts | 55° |
| 2026-05-07 18:21 | 59.72275 | 23.17528 | 26716 ft | 423 kts | 55° |
| 2026-05-07 18:21 | 59.73785 | 23.22508 | 26286 ft | 420 kts | 55° |
| 2026-05-07 18:21 | 59.75285 | 23.27469 | 25857 ft | 417 kts | 55° |
| 2026-05-07 18:21 | 59.76771 | 23.32391 | 25417 ft | 415 kts | 55° |
| 2026-05-07 18:22 | 59.78235 | 23.37299 | 25025 ft | 411 kts | 56° |
| 2026-05-07 18:22 | 59.79189 | 23.40543 | 24684 ft | 411 kts | 56° |
| 2026-05-07 18:22 | 59.81104 | 23.47135 | 24004 ft | 412 kts | 56° |
| 2026-05-07 18:22 | 59.82523 | 23.52065 | 23454 ft | 414 kts | 56° |
| 2026-05-07 18:23 | 59.83956 | 23.57038 | 22896 ft | 413 kts | 56° |
| 2026-05-07 18:23 | 59.85386 | 23.61993 | 22442 ft | 410 kts | 56° |
| 2026-05-07 18:23 | 59.86806 | 23.66904 | 21989 ft | 407 kts | 56° |
| 2026-05-07 18:23 | 59.88215 | 23.71772 | 21533 ft | 404 kts | 56° |
| 2026-05-07 18:24 | 59.89595 | 23.76551 | 21110 ft | 401 kts | 56° |
| 2026-05-07 18:24 | 59.90999 | 23.81420 | 20668 ft | 399 kts | 56° |
| 2026-05-07 18:24 | 59.92375 | 23.86198 | 20235 ft | 397 kts | 56° |
| 2026-05-07 18:24 | 59.93726 | 23.90897 | 19807 ft | 395 kts | 56° |
| 2026-05-07 18:25 | 59.95087 | 23.95635 | 19366 ft | 393 kts | 56° |
| 2026-05-07 18:25 | 59.96435 | 24.00341 | 18943 ft | 391 kts | 56° |
| 2026-05-07 18:25 | 59.97780 | 24.05063 | 18527 ft | 389 kts | 57° |
| 2026-05-07 18:25 | 59.99114 | 24.09763 | 18057 ft | 387 kts | 57° |
| 2026-05-07 18:26 | 60.00439 | 24.14434 | 17624 ft | 384 kts | 57° |
| 2026-05-07 18:26 | 60.01748 | 24.19068 | 17222 ft | 382 kts | 57° |
| 2026-05-07 18:26 | 60.03050 | 24.23687 | 16804 ft | 379 kts | 57° |
| 2026-05-07 18:26 | 60.04339 | 24.28258 | 16401 ft | 376 kts | 57° |
| 2026-05-07 18:27 | 60.05621 | 24.32803 | 15991 ft | 374 kts | 57° |
| 2026-05-07 18:27 | 60.06877 | 24.37264 | 15657 ft | 370 kts | 57° |
| 2026-05-07 18:27 | 60.08134 | 24.41737 | 15267 ft | 367 kts | 57° |
| 2026-05-07 18:27 | 60.09378 | 24.46185 | 14865 ft | 365 kts | 57° |
| 2026-05-07 18:28 | 60.10608 | 24.50592 | 14462 ft | 362 kts | 57° |
| 2026-05-07 18:28 | 60.11829 | 24.54976 | 14167 ft | 357 kts | 57° |
| 2026-05-07 18:28 | 60.13026 | 24.59294 | 13772 ft | 354 kts | 57° |
| 2026-05-07 18:28 | 60.14220 | 24.63598 | 13292 ft | 350 kts | 57° |
| 2026-05-07 18:29 | 60.15397 | 24.67844 | 12788 ft | 347 kts | 58° |
| 2026-05-07 18:29 | 60.16555 | 24.72022 | 12371 ft | 341 kts | 58° |
| 2026-05-07 18:29 | 60.17703 | 24.76163 | 11946 ft | 337 kts | 58° |
| 2026-05-07 18:29 | 60.18837 | 24.80267 | 11546 ft | 334 kts | 58° |
| 2026-05-07 18:30 | 60.19956 | 24.84338 | 11197 ft | 330 kts | 59° |
| 2026-05-07 18:30 | 60.21043 | 24.88308 | 10815 ft | 327 kts | 59° |
| 2026-05-07 18:30 | 60.22118 | 24.92243 | 10687 ft | 315 kts | 59° |
| 2026-05-07 18:30 | 60.23153 | 24.96043 | 10468 ft | 305 kts | 59° |
| 2026-05-07 18:31 | 60.24161 | 24.99749 | 10027 ft | 299 kts | 59° |
| 2026-05-07 18:31 | 60.25174 | 25.03360 | 9458 ft | 294 kts | 54° |
| 2026-05-07 18:31 | 60.26492 | 25.06417 | 8871 ft | 286 kts | 38° |
| 2026-05-07 18:31 | 60.28120 | 25.08623 | 8313 ft | 278 kts | 24° |
| 2026-05-07 18:32 | 60.29894 | 25.09886 | 7858 ft | 270 kts | 11° |
| 2026-05-07 18:32 | 60.31711 | 25.10769 | 7460 ft | 268 kts | 12° |
| 2026-05-07 18:32 | 60.33525 | 25.11628 | 7067 ft | 266 kts | 8° |
| 2026-05-07 18:32 | 60.35361 | 25.11774 | 6678 ft | 263 kts | 353° |
| 2026-05-07 18:33 | 60.37123 | 25.10953 | 6363 ft | 258 kts | 339° |
| 2026-05-07 18:33 | 60.38733 | 25.09406 | 5988 ft | 255 kts | 334° |
| 2026-05-07 18:33 | 60.40291 | 25.07822 | 5793 ft | 245 kts | 333° |
| 2026-05-07 18:33 | 60.41772 | 25.06309 | 5655 ft | 233 kts | 333° |
| 2026-05-07 18:34 | 60.43199 | 25.04852 | 5301 ft | 231 kts | 333° |
| 2026-05-07 18:34 | 60.44646 | 25.03369 | 4895 ft | 231 kts | 333° |
| 2026-05-07 18:34 | 60.46048 | 25.01926 | 4628 ft | 220 kts | 333° |
| 2026-05-07 18:34 | 60.47372 | 25.00475 | 4379 ft | 212 kts | 323° |
| 2026-05-07 18:35 | 60.48274 | 24.98217 | 4113 ft | 206 kts | 294° |
| 2026-05-07 18:35 | 60.48468 | 24.95397 | 3855 ft | 203 kts | 264° |
| 2026-05-07 18:35 | 60.47969 | 24.92733 | 3620 ft | 202 kts | 246° |
| 2026-05-07 18:35 | 60.47343 | 24.90274 | 3492 ft | 193 kts | 246° |
| 2026-05-07 18:36 | 60.46747 | 24.87908 | 3277 ft | 187 kts | 247° |
| 2026-05-07 18:36 | 60.45977 | 24.85793 | 2940 ft | 192 kts | 219° |
| 2026-05-07 18:36 | 60.44738 | 24.84930 | 2729 ft | 190 kts | 181° |
| 2026-05-07 18:36 | 60.43491 | 24.85639 | 2523 ft | 187 kts | 153° |
| 2026-05-07 18:37 | 60.42339 | 24.86841 | 2265 ft | 185 kts | 153° |
| 2026-05-07 18:37 | 60.41200 | 24.88027 | 2017 ft | 183 kts | 154° |
| 2026-05-07 18:37 | 60.40070 | 24.89196 | 1760 ft | 180 kts | 154° |
| 2026-05-07 18:37 | 60.38983 | 24.90319 | 1506 ft | 170 kts | 154° |
| 2026-05-07 18:38 | 60.37975 | 24.91359 | 1311 ft | 156 kts | 154° |
| 2026-05-07 18:38 | 60.37030 | 24.92331 | 1091 ft | 148 kts | 155° |
| 2026-05-07 18:38 | 60.36129 | 24.93260 | 890 ft | 142 kts | 156° |
| 2026-05-07 18:38 | 60.35266 | 24.94148 | 698 ft | 137 kts | 155° |
| 2026-05-07 18:39 | 60.34417 | 24.95018 | 504 ft | 136 kts | 154° |
| 2026-05-07 18:39 | 60.33581 | 24.95883 | 335 ft | 134 kts | 154° |
| 2026-05-07 18:39 | 60.32751 | 24.96736 | 181 ft | 129 kts | 154° |
| 2026-05-07 18:39 | 60.32062 | 24.97438 | 155 ft | 87 kts | 153° |
| 2026-05-07 18:40 | 60.31675 | 24.97839 | 151 ft | 42 kts | 153° |
| 2026-05-07 18:40 | 60.31473 | 24.97980 | 153 ft | 24 kts | 195° |
| 2026-05-07 18:40 | 60.31418 | 24.97775 | 156 ft | 14 kts | 301° |
| 2026-05-07 18:40 | 60.31495 | 24.97685 | 156 ft | 12 kts | 333° |
| 2026-05-07 18:41 | 60.31565 | 24.97612 | 156 ft | 11 kts | 333° |
| 2026-05-07 18:41 | 60.31621 | 24.97555 | 158 ft | 7 kts | 333° |
| 2026-05-07 18:41 | 60.31660 | 24.97515 | 159 ft | 10 kts | 333° |
| 2026-05-07 18:41 | 60.31760 | 24.97411 | 160 ft | 20 kts | 333° |
| 2026-05-07 18:42 | 60.31886 | 24.97283 | 162 ft | 18 kts | 333° |
| 2026-05-07 18:42 | 60.31990 | 24.97175 | 165 ft | 15 kts | 333° |
| 2026-05-07 18:42 | 60.32079 | 24.97086 | 166 ft | 15 kts | 333° |
| 2026-05-07 18:42 | 60.32142 | 24.96973 | 166 ft | 10 kts | 273° |
| 2026-05-07 18:43 | 60.32103 | 24.96871 | 166 ft | 9 kts | 227° |
| 2026-05-07 18:43 | 60.32061 | 24.96778 | 166 ft | 9 kts | 227° |
| 2026-05-07 18:43 | 60.32015 | 24.96677 | 167 ft | 10 kts | 227° |
| 2026-05-07 18:43 | 60.31961 | 24.96558 | 167 ft | 13 kts | 227° |
| 2026-05-07 18:44 | 60.31899 | 24.96421 | 167 ft | 12 kts | 227° |
| 2026-05-07 18:44 | 60.31868 | 24.96418 | 167 ft | 4 kts | 147° |
| 2026-05-07 18:44 | 60.31854 | 24.96441 | 167 ft | 2 kts | 141° |
| 2026-05-07 18:44 | 60.31847 | 24.96454 | 167 ft | 1 kts | 137° |
| 2026-05-07 18:45 | 60.31844 | 24.96460 | 167 ft | 1 kts | 137° |
| 2026-05-07 18:45 | 60.31839 | 24.96468 | 167 ft | 0 kts | 137° |
| 2026-05-07 18:45 | 60.31839 | 24.96470 | 167 ft | 0 kts | 137° |
| 2026-05-07 18:45 | 60.31837 | 24.96472 | 167 ft | 0 kts | 137° |